Time;durP1;ratioP1;P1;durP2;ratioP2;P2;SDS_P1;SDS_P2;PMS_P1;PMS_P2;Temp;Humidity;BMP_temperature;BMP_pressure;BME280_temperature;BME280_humidity;BME280_pressure;Samples;Min_cycle;Max_cycle;Signal;HPM_P1;HPM_P2
2021/11/04 00:02:06;;;;;;;17.42;12.55;;;409.80;2355.20;;;;;;5113892;28;20015;-77
2021/11/04 00:04:32;;;;;;;17.98;11.88;;;409.80;2355.20;;;;;;5095576;28;20031;-77
2021/11/04 00:06:58;;;;;;;17.13;12.45;;;409.80;2355.20;;;;;;5095651;28;20016;-76
2021/11/04 00:09:24;;;;;;;18.38;12.07;;;409.80;2355.20;;;;;;5095402;28;20038;-77
2021/11/04 00:11:50;;;;;;;15.65;12.05;;;409.80;2355.20;;;;;;5095647;28;20020;-77
2021/11/04 00:14:16;;;;;;;17.05;13.25;;;409.80;2355.20;;;;;;5113413;28;20024;-78
2021/11/04 00:16:42;;;;;;;20.08;11.88;;;409.90;2355.20;;;;;;5095220;28;20027;-77
2021/11/04 00:19:08;;;;;;;16.75;12.23;;;409.90;2355.20;;;;;;5092306;28;20028;-77
2021/11/04 00:21:34;;;;;;;15.25;11.15;;;409.90;2355.20;;;;;;5092954;28;20065;-78
2021/11/04 00:23:59;;;;;;;17.38;12.23;;;409.90;2355.20;;;;;;5102964;28;20050;-78
2021/11/04 00:26:25;;;;;;;15.77;11.23;;;409.90;2355.20;;;;;;5112922;28;20026;-77
2021/11/04 00:28:53;;;;;;;18.92;11.93;;;410.00;2355.20;;;;;;5113850;28;20031;-77
2021/11/04 00:31:19;;;;;;;16.70;10.35;;;410.10;2355.20;;;;;;5113172;28;20023;-77
2021/11/04 00:33:45;;;;;;;16.52;11.90;;;410.00;2355.20;;;;;;5113029;28;20034;-77
2021/11/04 00:36:11;;;;;;;14.95;11.50;;;410.10;2355.20;;;;;;5112981;28;20023;-77
2021/11/04 00:38:37;;;;;;;20.05;11.07;;;410.10;2355.20;;;;;;5095266;28;20384;-77
2021/11/04 00:41:03;;;;;;;14.10;10.30;;;410.10;2355.20;;;;;;5094643;28;20069;-77
2021/11/04 00:43:28;;;;;;;16.50;11.10;;;410.10;2355.20;;;;;;5094746;28;20086;-77
2021/11/04 00:45:54;;;;;;;15.23;10.50;;;410.00;2355.20;;;;;;5113423;28;20058;-78
2021/11/04 00:48:20;;;;;;;17.55;10.80;;;410.00;2355.20;;;;;;5112954;28;20062;-78
2021/11/04 00:50:46;;;;;;;14.20;10.15;;;410.00;2355.20;;;;;;5094690;28;20019;-78
2021/11/04 00:53:12;;;;;;;19.58;11.95;;;409.90;2355.20;;;;;;5093894;28;20035;-78
2021/11/04 00:55:37;;;;;;;14.70;9.98;;;409.90;2355.20;;;;;;5094508;28;20039;-78
2021/11/04 00:58:03;;;;;;;15.63;10.88;;;409.90;2355.20;;;;;;5112832;28;20024;-78
2021/11/04 01:00:29;;;;;;;17.08;10.55;;;409.90;2355.20;;;;;;5112881;28;20023;-77
2021/11/04 01:02:55;;;;;;;14.27;10.02;;;409.90;2355.20;;;;;;5112433;28;20024;-77
2021/11/04 01:05:21;;;;;;;15.20;10.27;;;409.90;2355.20;;;;;;5113272;28;20020;-77
2021/11/04 01:07:47;;;;;;;16.48;10.32;;;409.90;2355.20;;;;;;5112565;28;20047;-77
2021/11/04 01:10:13;;;;;;;16.33;10.82;;;410.00;2355.20;;;;;;5112481;28;20383;-77
2021/11/04 01:12:39;;;;;;;16.85;10.65;;;410.10;2355.20;;;;;;5094624;28;20031;-77
2021/11/04 01:15:06;;;;;;;15.98;10.05;;;410.10;2355.20;;;;;;5112205;28;20015;-77
2021/11/04 01:17:32;;;;;;;15.80;10.23;;;410.20;2355.20;;;;;;5112614;28;20024;-77
2021/11/04 01:19:58;;;;;;;18.00;10.60;;;410.20;2355.20;;;;;;5112287;28;20019;-77
2021/11/04 01:22:24;;;;;;;14.30;10.40;;;410.20;2355.20;;;;;;5094224;28;20047;-77
2021/11/04 01:24:50;;;;;;;17.83;10.30;;;410.20;2355.20;;;;;;5093636;28;20078;-77
2021/11/04 01:27:16;;;;;;;18.23;11.00;;;410.20;2355.20;;;;;;5112487;28;20100;-77
2021/11/04 01:29:42;;;;;;;14.63;10.18;;;410.30;2355.20;;;;;;5093863;28;20051;-77
2021/11/04 01:32:07;;;;;;;14.63;9.77;;;410.30;2355.20;;;;;;5112840;28;21042;-78
2021/11/04 01:34:33;;;;;;;12.15;9.57;;;410.30;2355.20;;;;;;5093430;28;20028;-78
2021/11/04 01:36:59;;;;;;;13.35;10.10;;;410.30;2355.20;;;;;;5112031;28;20110;-77
2021/11/04 01:39:24;;;;;;;17.40;10.95;;;410.40;2355.20;;;;;;5112455;28;20091;-77
2021/11/04 01:41:52;;;;;;;18.25;11.50;;;410.40;2355.20;;;;;;5111839;28;20722;-78
2021/11/04 01:44:18;;;;;;;15.63;10.50;;;410.40;2355.20;;;;;;5093818;28;20062;-78
2021/11/04 01:46:44;;;;;;;12.80;9.25;;;410.40;2355.20;;;;;;5093456;28;20054;-78
2021/11/04 01:49:10;;;;;;;14.40;10.95;;;410.40;2355.20;;;;;;5112218;28;20020;-79
2021/11/04 01:51:36;;;;;;;16.17;10.25;;;410.30;2355.20;;;;;;5112039;28;20027;-79
2021/11/04 01:54:02;;;;;;;18.23;10.10;;;410.30;2355.20;;;;;;5111764;28;20126;-78
2021/11/04 01:56:28;;;;;;;12.65;9.48;;;410.30;2355.20;;;;;;5111213;28;20020;-78
2021/11/04 01:58:54;;;;;;;15.57;9.82;;;410.30;2355.20;;;;;;5111990;28;20020;-78
2021/11/04 02:01:21;;;;;;;16.98;10.45;;;410.30;2355.20;;;;;;5111435;28;20019;-78
2021/11/04 02:04:14;;;;;;;15.55;10.30;;;410.30;2355.20;;;;;;5111304;28;20487;-78
2021/11/04 02:06:50;;;;;;;14.45;9.38;;;410.30;2355.20;;;;;;5093100;28;20109;-78
2021/11/04 02:09:15;;;;;;;;;;;410.30;2355.20;;;;;;5093647;28;20150;-78
2021/11/04 02:11:49;;;;;;;13.53;9.60;;;410.40;2355.20;;;;;;5093305;28;20014;-78
2021/11/04 02:14:26;;;;;;;14.43;9.30;;;410.40;2355.20;;;;;;5093408;28;20023;-78
2021/11/04 02:16:56;;;;;;;18.27;9.35;;;410.40;2355.20;;;;;;5093111;28;20023;-78
2021/11/04 02:19:43;;;;;;;12.50;8.98;;;410.50;2355.20;;;;;;5093883;28;20375;-78
2021/11/04 02:22:21;;;;;;;13.15;7.93;;;435.20;2355.20;;;;;;5093740;28;20024;-77
2021/11/04 02:24:59;;;;;;;15.70;8.93;;;435.20;2355.20;;;;;;5110539;28;20119;-78
2021/11/04 02:27:25;;;;;;;14.15;8.55;;;435.30;2355.20;;;;;;5093092;28;20024;-77
2021/11/04 02:29:52;;;;;;;12.05;8.55;;;435.20;2355.20;;;;;;5111938;28;20027;-77
2021/11/04 02:32:19;;;;;;;13.00;8.27;;;435.20;2355.20;;;;;;5111241;28;20072;-77
2021/11/04 02:34:46;;;;;;;11.77;8.35;;;435.40;2355.20;;;;;;5111726;28;20042;-77
2021/11/04 02:37:12;;;;;;;13.43;7.90;;;435.40;2355.20;;;;;;5092893;28;20252;-77
2021/11/04 02:39:39;;;;;;;12.25;8.13;;;435.40;2355.20;;;;;;5093551;28;20460;-77
2021/11/04 02:42:06;;;;;;;11.60;8.07;;;435.40;2355.20;;;;;;5092709;28;20494;-77
2021/11/04 02:44:34;;;;;;;16.30;8.85;;;435.40;2355.20;;;;;;5111688;28;20024;-77
2021/11/04 02:47:00;;;;;;;12.77;8.02;;;435.40;2355.20;;;;;;5092983;28;20455;-77
2021/11/04 02:49:26;;;;;;;16.33;8.35;;;435.40;2355.20;;;;;;5092861;28;20023;-77
2021/11/04 02:51:53;;;;;;;12.05;8.75;;;435.40;2355.20;;;;;;5093270;28;20494;-77
2021/11/04 02:54:20;;;;;;;13.43;7.72;;;435.40;2355.20;;;;;;5092040;28;20070;-76
2021/11/04 02:56:51;;;;;;;11.80;7.68;;;435.40;2355.20;;;;;;5114914;28;20062;-77
2021/11/04 02:59:19;;;;;;;11.68;6.95;;;435.40;2355.20;;;;;;5114891;28;20024;-77
2021/11/04 03:01:49;;;;;;;14.43;7.93;;;435.40;2355.20;;;;;;5097305;28;20073;-77
2021/11/04 03:04:17;;;;;;;12.43;9.10;;;435.50;2355.20;;;;;;5114977;28;20028;-77
2021/11/04 03:06:43;;;;;;;9.88;7.10;;;435.40;2355.20;;;;;;5097177;28;20447;-77
2021/11/04 03:09:09;;;;;;;13.30;8.13;;;435.40;2355.20;;;;;;5114791;28;20067;-77
2021/11/04 03:11:35;;;;;;;14.25;7.82;;;435.30;2355.20;;;;;;5096539;28;20023;-77
2021/11/04 03:14:01;;;;;;;15.40;8.73;;;435.20;2355.20;;;;;;5115251;28;20028;-77
2021/11/04 03:16:30;;;;;;;20.00;9.07;;;435.20;2355.20;;;;;;5114806;28;20066;-77
2021/11/04 03:18:57;;;;;;;19.17;8.65;;;435.20;2355.20;;;;;;5115216;28;20020;-78
2021/11/04 03:21:27;;;;;;;16.13;10.57;;;410.50;2355.20;;;;;;5096069;28;20031;-78
2021/11/04 03:23:53;;;;;;;13.18;8.57;;;410.50;2355.20;;;;;;5093903;28;20056;-77
2021/11/04 03:26:22;;;;;;;12.75;8.98;;;410.50;2355.20;;;;;;5113621;28;20024;-78
2021/11/04 03:28:48;;;;;;;9.98;8.02;;;410.50;2355.20;;;;;;5114416;28;20023;-77
2021/11/04 03:31:15;;;;;;;13.80;7.88;;;410.40;2355.20;;;;;;5115074;28;20041;-77
2021/11/04 03:33:42;;;;;;;11.60;9.10;;;410.50;2355.20;;;;;;5113906;28;20478;-76
2021/11/04 03:36:08;;;;;;;13.07;8.95;;;410.50;2355.20;;;;;;5114859;28;20020;-77
2021/11/04 03:38:35;;;;;;;11.27;8.48;;;410.50;2355.20;;;;;;5095949;28;20020;-77
2021/11/04 03:41:01;;;;;;;15.90;7.55;;;410.50;2355.20;;;;;;5114662;28;20049;-77
2021/11/04 03:43:28;;;;;;;10.90;6.95;;;435.20;2355.20;;;;;;5114113;28;20023;-77
2021/11/04 03:45:54;;;;;;;14.45;7.50;;;435.20;2355.20;;;;;;5113503;28;20106;-77
2021/11/04 03:48:20;;;;;;;10.63;7.90;;;435.30;2355.20;;;;;;5112749;28;20498;-77
2021/11/04 03:50:47;;;;;;;15.25;7.18;;;435.40;2355.20;;;;;;5114641;28;20073;-77
2021/11/04 03:53:16;;;;;;;11.40;6.72;;;435.40;2355.20;;;;;;5111021;28;20032;-78
2021/11/04 03:55:43;;;;;;;9.73;6.88;;;435.30;2355.20;;;;;;5112430;28;20055;-77
2021/11/04 03:58:09;;;;;;;9.55;6.35;;;435.40;2355.20;;;;;;5114520;28;20532;-77
2021/11/04 04:00:35;;;;;;;11.23;6.68;;;435.40;2355.20;;;;;;5113849;28;20028;-77
2021/11/04 04:03:01;;;;;;;12.40;6.85;;;435.40;2355.20;;;;;;5096118;28;20333;-78
2021/11/04 04:05:29;;;;;;;10.90;6.90;;;435.40;2355.20;;;;;;5095623;28;20027;-78
2021/11/04 04:07:55;;;;;;;10.55;7.70;;;435.40;2355.20;;;;;;5095515;28;20023;-78
2021/11/04 04:10:21;;;;;;;10.40;6.85;;;435.40;2355.20;;;;;;5095359;28;20023;-77
2021/11/04 04:12:47;;;;;;;13.65;7.50;;;435.40;2355.20;;;;;;5095575;28;20031;-78
2021/11/04 04:15:13;;;;;;;10.48;5.97;;;435.50;2355.20;;;;;;5113399;28;20460;-78
2021/11/04 04:17:38;;;;;;;12.32;6.65;;;435.50;2355.20;;;;;;5095055;28;20043;-78
2021/11/04 04:20:05;;;;;;;10.68;6.53;;;435.60;2355.20;;;;;;5113793;28;20020;-78
2021/11/04 04:22:31;;;;;;;13.07;7.28;;;435.70;2355.20;;;;;;5114462;27;20063;-78
2021/11/04 04:24:56;;;;;;;11.23;6.90;;;435.70;2355.20;;;;;;5098478;28;20085;-78
2021/11/04 04:27:22;;;;;;;15.68;7.40;;;435.70;2355.20;;;;;;5113279;28;20723;-76
2021/11/04 04:29:48;;;;;;;11.27;7.15;;;435.70;2355.20;;;;;;5112603;28;20023;-76
2021/11/04 04:32:14;;;;;;;9.65;7.15;;;435.70;2355.20;;;;;;5099436;28;20055;-77
2021/11/04 04:34:42;;;;;;;9.77;7.00;;;435.60;2355.20;;;;;;5093236;28;20544;-79
2021/11/04 04:37:08;;;;;;;10.10;6.40;;;435.60;2355.20;;;;;;5074910;28;20035;-79
2021/11/04 04:39:34;;;;;;;11.07;6.75;;;435.50;2355.20;;;;;;5094826;28;20019;-78
2021/11/04 04:42:00;;;;;;;13.18;6.50;;;435.70;2355.20;;;;;;5112622;28;20423;-79
2021/11/04 04:44:28;;;;;;;11.43;7.15;;;435.70;2355.20;;;;;;5092820;28;20096;-78
2021/11/04 04:46:53;;;;;;;10.55;6.63;;;435.70;2355.20;;;;;;5111663;28;20023;-79
2021/11/04 04:49:19;;;;;;;11.43;6.25;;;435.70;2355.20;;;;;;5092676;28;20502;-80
2021/11/04 04:51:45;;;;;;;14.07;7.75;;;435.90;2355.20;;;;;;5093844;28;20035;-80
2021/11/04 04:54:11;;;;;;;10.40;6.25;;;435.90;2355.20;;;;;;5111162;28;20432;-80
2021/11/04 04:56:37;;;;;;;11.23;6.50;;;436.00;2355.20;;;;;;5113032;28;20016;-81
2021/11/04 04:59:04;;;;;;;13.68;6.82;;;436.10;2355.20;;;;;;5121420;27;20042;-81
2021/11/04 05:01:30;;;;;;;14.73;8.10;;;436.10;2355.20;;;;;;5085555;28;20039;-79
2021/11/04 05:03:56;;;;;;;10.52;7.32;;;436.10;2355.20;;;;;;5074226;28;20487;-79
2021/11/04 05:06:22;;;;;;;26.00;9.35;;;436.10;2355.20;;;;;;5074658;28;20113;-79
2021/11/04 05:08:48;;;;;;;13.15;7.43;;;436.00;2355.20;;;;;;5095920;28;20027;-79
2021/11/04 05:11:13;;;;;;;10.45;6.80;;;436.00;2355.20;;;;;;5110462;28;20399;-79
2021/11/04 05:13:39;;;;;;;14.00;7.88;;;436.00;2355.20;;;;;;5111774;28;20031;-79
2021/11/04 05:16:05;;;;;;;14.82;8.07;;;436.00;2355.20;;;;;;5093649;28;20552;-79
2021/11/04 05:18:31;;;;;;;12.98;7.55;;;435.90;2355.20;;;;;;5094711;27;20118;-79
2021/11/04 05:20:56;;;;;;;12.68;7.97;;;435.90;2355.20;;;;;;5098771;27;20039;-78
2021/11/04 05:23:22;;;;;;;16.02;7.28;;;435.90;2355.20;;;;;;5086235;28;20101;-79
2021/11/04 05:25:48;;;;;;;14.23;7.68;;;435.80;2355.20;;;;;;5091451;28;20074;-79
2021/11/04 05:28:14;;;;;;;16.42;8.95;;;435.80;2355.20;;;;;;5074034;28;20415;-79
2021/11/04 05:30:41;;;;;;;13.82;7.63;;;435.80;2355.20;;;;;;5070590;28;20028;-78
2021/11/04 05:33:06;;;;;;;12.27;8.18;;;435.70;2355.20;;;;;;5074635;28;20396;-78
2021/11/04 05:35:32;;;;;;;11.48;8.00;;;435.70;2355.20;;;;;;5086043;28;20099;-78
2021/11/04 05:37:58;;;;;;;12.98;6.97;;;435.70;2355.20;;;;;;5091859;28;20020;-78
2021/11/04 05:40:24;;;;;;;12.45;7.15;;;435.70;2355.20;;;;;;5089641;28;20055;-79
2021/11/04 05:42:50;;;;;;;21.80;7.85;;;435.70;2355.20;;;;;;5059379;28;20029;-78
2021/11/04 05:45:16;;;;;;;11.63;7.32;;;435.80;2355.20;;;;;;5085358;28;20056;-78
2021/11/04 05:47:42;;;;;;;9.95;7.07;;;435.80;2355.20;;;;;;5092212;28;20020;-79
2021/11/04 05:50:08;;;;;;;11.88;6.82;;;435.80;2355.20;;;;;;5072850;28;20020;-80
2021/11/04 05:52:33;;;;;;;12.13;7.65;;;435.90;2355.20;;;;;;5061914;28;20039;-80
2021/11/04 05:55:00;;;;;;;14.23;7.53;;;435.90;2355.20;;;;;;5085333;28;20029;-79
2021/11/04 05:57:26;;;;;;;12.55;7.55;;;436.00;2355.20;;;;;;5065625;28;20027;-79
2021/11/04 05:59:52;;;;;;;17.00;9.45;;;436.00;2355.20;;;;;;5073432;28;20095;-80
2021/11/04 06:02:18;;;;;;;13.82;7.68;;;436.10;2355.20;;;;;;5083863;28;20108;-79
2021/11/04 06:04:45;;;;;;;10.95;6.90;;;460.80;2380.80;;;;;;5078424;28;20027;-78
2021/11/04 06:07:12;;;;;;;13.13;7.43;;;460.80;2380.80;;;;;;5062931;28;20031;-79
2021/11/04 06:09:38;;;;;;;16.33;8.57;;;460.80;2380.80;;;;;;5065942;28;20032;-79
2021/11/04 06:12:04;;;;;;;13.93;7.32;;;461.00;2380.80;;;;;;5067854;28;20135;-79
2021/11/04 06:14:30;;;;;;;14.90;6.68;;;460.90;2380.80;;;;;;5084282;28;20446;-79
2021/11/04 06:16:56;;;;;;;13.48;7.00;;;460.90;2380.80;;;;;;5065088;28;20025;-80
2021/11/04 06:19:21;;;;;;;14.55;7.85;;;460.90;2380.80;;;;;;5063783;28;20043;-79
2021/11/04 06:21:47;;;;;;;16.50;8.70;;;460.90;2380.80;;;;;;5064734;28;20027;-77
2021/11/04 06:24:13;;;;;;;24.42;11.43;;;460.90;2380.80;;;;;;5085264;28;20071;-77
2021/11/04 06:26:39;;;;;;;25.60;10.48;;;461.00;2380.80;;;;;;5102265;28;20095;-77
2021/11/04 06:29:04;;;;;;;13.57;8.50;;;461.00;2380.80;;;;;;5084291;28;20066;-76
2021/11/04 06:31:31;;;;;;;19.67;8.70;;;461.00;2380.80;;;;;;5103194;28;20024;-77
2021/11/04 06:33:57;;;;;;;16.52;8.57;;;460.80;2380.80;;;;;;5087661;28;20028;-77
2021/11/04 06:36:23;;;;;;;13.90;8.55;;;461.10;2380.80;;;;;;5106779;28;20047;-77
2021/11/04 06:38:50;;;;;;;12.45;6.70;;;461.20;2380.80;;;;;;5106731;28;20434;-76
2021/11/04 06:41:16;;;;;;;19.35;9.30;;;461.30;2380.80;;;;;;5105407;28;20119;-76
2021/11/04 06:43:43;;;;;;;16.85;9.55;;;461.30;2380.80;;;;;;5103744;28;20032;-76
2021/11/04 06:46:11;;;;;;;16.25;9.82;;;461.40;2380.80;;;;;;5112051;28;20027;-77
2021/11/04 06:48:42;;;;;;;16.38;8.48;;;461.50;2380.80;;;;;;5104499;28;20051;-76
2021/11/04 06:51:10;;;;;;;10.63;7.43;;;461.50;2380.80;;;;;;5109231;28;20051;-76
2021/11/04 06:53:41;;;;;;;11.30;6.88;;;461.60;2380.80;;;;;;5102289;28;20055;-77
2021/11/04 06:56:08;;;;;;;15.05;7.03;;;461.70;2380.80;;;;;;5090795;28;20487;-77
2021/11/04 06:58:36;;;;;;;14.10;6.72;;;461.70;2380.80;;;;;;5102318;28;20024;-76
2021/11/04 07:01:08;;;;;;;11.18;6.38;;;486.40;2380.80;;;;;;5104010;28;20028;-76
2021/11/04 07:03:42;;;;;;;14.32;7.30;;;486.40;2380.80;;;;;;5082139;28;20062;-76
2021/11/04 07:06:08;;;;;;;14.35;8.32;;;486.50;2380.80;;;;;;5082373;28;20559;-76
2021/11/04 07:08:57;;;;;;;13.35;7.53;;;486.40;2380.80;;;;;;5107608;28;20023;-76
2021/11/04 07:11:27;;;;;;;15.73;8.05;;;486.60;2380.80;;;;;;5099194;28;20103;-76
2021/11/04 07:13:54;;;;;;;13.30;7.80;;;486.60;2380.80;;;;;;5087509;28;20035;-76
2021/11/04 07:16:24;;;;;;;17.13;8.13;;;486.60;2380.80;;;;;;5106919;28;20031;-75
2021/11/04 07:18:52;;;;;;;12.68;7.45;;;486.60;2380.80;;;;;;5103399;28;20103;-76
2021/11/04 07:21:42;;;;;;;11.13;7.28;;;486.60;2380.80;;;;;;5109926;28;20106;-76
2021/11/04 07:24:11;;;;;;;13.98;7.18;;;486.60;2380.80;;;;;;5104940;28;20059;-76
2021/11/04 07:26:43;;;;;;;14.50;7.63;;;486.70;2380.80;;;;;;5105559;28;20089;-76
2021/11/04 07:29:11;;;;;;;12.60;7.45;;;486.70;2380.80;;;;;;5106964;28;20137;-76
2021/11/04 07:31:39;;;;;;;14.38;7.68;;;486.80;2380.80;;;;;;5106484;28;20020;-76
2021/11/04 07:34:08;;;;;;;18.67;6.82;;;486.90;2380.80;;;;;;5107196;28;20100;-76
2021/11/04 07:36:36;;;;;;;15.63;7.18;;;486.90;2380.80;;;;;;5105111;28;20027;-76
2021/11/04 07:39:04;;;;;;;13.73;7.75;;;486.90;2380.80;;;;;;5103691;28;20024;-78
2021/11/04 07:41:31;;;;;;;21.20;6.40;;;486.90;2380.80;;;;;;5088683;28;20027;-77
2021/11/04 07:43:58;;;;;;;11.65;6.88;;;487.00;2380.80;;;;;;5092052;28;20030;-76
2021/11/04 07:46:25;;;;;;;10.98;7.20;;;487.00;2380.80;;;;;;5084273;28;20499;-77
2021/11/04 07:48:51;;;;;;;11.80;6.72;;;487.10;2380.80;;;;;;5099556;28;20028;-76
2021/11/04 07:51:16;;;;;;;13.13;6.95;;;487.10;2380.80;;;;;;5108351;28;20050;-77
2021/11/04 07:53:42;;;;;;;11.98;7.05;;;487.20;2380.80;;;;;;5105986;28;20036;-76
2021/11/04 07:56:09;;;;;;;15.10;6.90;;;487.30;2380.80;;;;;;5083302;28;20063;-77
2021/11/04 07:58:35;;;;;;;15.45;6.95;;;512.00;2380.80;;;;;;5090653;28;20024;-77
2021/11/04 08:01:01;;;;;;;14.18;6.57;;;512.00;2380.80;;;;;;5087767;28;20020;-76
2021/11/04 08:03:27;;;;;;;11.52;6.97;;;512.00;2380.80;;;;;;5104623;28;20089;-79
2021/11/04 08:05:53;;;;;;;17.65;7.93;;;512.20;2380.80;;;;;;5106158;28;20103;-79
2021/11/04 08:08:19;;;;;;;14.57;8.50;;;512.30;2380.80;;;;;;5102409;28;20393;-78
2021/11/04 08:10:45;;;;;;;14.77;7.65;;;512.40;2380.80;;;;;;5099352;28;20535;-76
2021/11/04 08:13:13;;;;;;;20.30;7.60;;;512.50;2380.80;;;;;;5088054;28;20455;-78
2021/11/04 08:15:40;;;;;;;13.32;7.43;;;512.50;2380.80;;;;;;5085509;28;20387;-76
2021/11/04 08:18:10;;;;;;;13.25;6.88;;;512.70;2380.80;;;;;;5086258;28;20024;-76
2021/11/04 08:20:37;;;;;;;11.27;7.10;;;512.80;2380.80;;;;;;5105531;28;20464;-77
2021/11/04 08:23:14;;;;;;;28.77;8.88;;;537.70;2406.40;;;;;;5098482;28;20068;-76
2021/11/04 08:25:41;;;;;;;18.73;10.55;;;537.60;2406.40;;;;;;5065645;28;20519;-76
2021/11/04 08:28:07;;;;;;;13.07;7.72;;;537.80;2406.40;;;;;;5079765;28;20081;-76
2021/11/04 08:30:34;;;;;;;14.48;6.72;;;538.00;2406.40;;;;;;5057464;28;20109;-76
2021/11/04 08:33:00;;;;;;;11.27;7.63;;;538.00;2406.40;;;;;;5080880;28;20070;-77
2021/11/04 08:35:25;;;;;;;12.73;7.38;;;538.20;2406.40;;;;;;5088540;28;20488;-76
2021/11/04 08:37:51;;;;;;;14.60;6.75;;;538.50;2406.40;;;;;;5073028;28;20021;-76
2021/11/04 08:40:17;;;;;;;12.85;7.65;;;563.20;2432.00;;;;;;5078121;28;20020;-75
2021/11/04 08:42:43;;;;;;;20.20;6.55;;;563.60;2432.00;;;;;;5089582;28;20502;-76
2021/11/04 08:45:09;;;;;;;16.90;8.00;;;563.80;2432.00;;;;;;5073598;28;20025;-76
2021/11/04 08:47:37;;;;;;;26.73;8.63;;;588.80;2432.00;;;;;;5079626;28;20024;-76
2021/11/04 08:50:04;;;;;;;13.18;6.90;;;588.80;2432.00;;;;;;5079799;28;20047;-77
2021/11/04 08:52:30;;;;;;;19.13;8.05;;;588.90;2432.00;;;;;;5075682;28;20035;-77
2021/11/04 08:54:56;;;;;;;16.45;7.30;;;589.00;2432.00;;;;;;5076495;28;20107;-77
2021/11/04 08:57:22;;;;;;;14.48;7.18;;;589.10;2432.00;;;;;;5081707;28;20395;-77
2021/11/04 08:59:48;;;;;;;18.05;7.70;;;589.30;2432.00;;;;;;5080941;28;20024;-76
2021/11/04 09:02:16;;;;;;;13.30;6.00;;;589.50;2432.00;;;;;;5063200;28;20052;-77
2021/11/04 09:04:43;;;;;;;24.88;7.32;;;589.40;2432.00;;;;;;5083628;28;20028;-77
2021/11/04 09:07:17;;;;;;;22.23;7.10;;;589.00;2432.00;;;;;;5086640;28;20016;-77
2021/11/04 09:09:43;;;;;;;16.83;7.57;;;564.10;2432.00;;;;;;5065502;28;20035;-77
2021/11/04 09:12:09;;;;;;;16.70;6.43;;;589.30;2432.00;;;;;;5068271;28;20066;-76
2021/11/04 09:14:36;;;;;;;12.27;6.40;;;589.20;2432.00;;;;;;5069151;28;20035;-77
2021/11/04 09:17:03;;;;;;;19.63;8.52;;;589.60;2432.00;;;;;;5065321;28;20034;-77
2021/11/04 09:19:28;;;;;;;15.50;6.20;;;614.50;2432.00;;;;;;5067566;28;20032;-77
2021/11/04 09:21:54;;;;;;;12.00;5.70;;;614.80;2432.00;;;;;;5056245;28;20089;-75
2021/11/04 09:24:20;;;;;;;11.00;6.20;;;615.10;2432.00;;;;;;5088634;28;20084;-75
2021/11/04 09:26:46;;;;;;;9.60;5.50;;;615.10;2432.00;;;;;;5086091;28;20024;-75
2021/11/04 09:29:11;;;;;;;23.58;6.60;;;615.30;2432.00;;;;;;5085926;28;20426;-75
2021/11/04 09:31:38;;;;;;;14.48;6.50;;;640.10;2432.00;;;;;;5062970;28;20055;-76
2021/11/04 09:34:04;;;;;;;12.18;6.60;;;640.00;2432.00;;;;;;5082089;28;20024;-75
2021/11/04 09:36:31;;;;;;;17.77;7.05;;;640.40;2432.00;;;;;;5063306;28;20127;-75
2021/11/04 09:38:58;;;;;;;17.80;5.38;;;640.60;2432.00;;;;;;5065684;28;20020;-75
2021/11/04 09:54:54;;;;;;;12.98;6.78;;;666.50;2432.00;;;;;;5089392;28;20043;-79
2021/11/04 10:04:04;;;;;;;15.30;7.43;;;691.70;2432.00;;;;;;5075895;28;20546;-75
2021/11/04 10:16:35;;;;;;;12.50;5.43;;;640.60;2432.00;;;;;;5084053;28;20039;-74
2021/11/04 10:19:07;;;;;;;17.33;6.05;;;665.60;2432.00;;;;;;5061225;28;20032;-74
2021/11/04 10:21:34;;;;;;;9.18;5.10;;;666.10;2432.00;;;;;;5076168;28;20095;-75
2021/11/04 10:24:01;;;;;;;14.60;6.25;;;666.00;2432.00;;;;;;5086293;28;20028;-74
2021/11/04 10:26:36;;;;;;;17.60;7.80;;;665.70;2432.00;;;;;;5056855;28;20456;-74
2021/11/04 10:29:11;;;;;;;20.25;7.03;;;640.80;2432.00;;;;;;5073404;28;20020;-74
2021/11/04 10:31:52;;;;;;;14.88;7.10;;;640.70;2432.00;;;;;;5071722;28;20020;-75
2021/11/04 10:34:27;;;;;;;14.43;6.38;;;640.50;2432.00;;;;;;5071116;28;20120;-74
2021/11/04 10:36:53;;;;;;;19.27;7.13;;;640.60;2432.00;;;;;;5053814;28;20108;-74
2021/11/04 10:39:28;;;;;;;11.18;6.40;;;640.50;2432.00;;;;;;5071401;28;20013;-75
2021/11/04 10:41:56;;;;;;;13.98;5.28;;;640.80;2432.00;;;;;;5071534;28;20789;-74
2021/11/04 10:44:23;;;;;;;17.05;5.80;;;665.80;2432.00;;;;;;5071521;28;20058;-74
2021/11/04 10:46:51;;;;;;;13.80;5.88;;;665.70;2432.00;;;;;;5053244;28;20036;-74
2021/11/04 10:49:23;;;;;;;13.70;5.05;;;666.20;2432.00;;;;;;5066289;28;20036;-74
2021/11/04 10:52:05;;;;;;;12.23;5.97;;;691.80;2432.00;;;;;;5073383;28;20029;-74
2021/11/04 10:54:50;;;;;;;12.75;6.25;;;691.80;2432.00;;;;;;5088615;28;20119;-75
2021/11/04 10:57:40;;;;;;;19.38;7.90;;;717.00;2380.80;;;;;;5065983;28;20017;-75
2021/11/04 11:00:21;;;;;;;15.45;7.10;;;717.60;2329.60;;;;;;5083249;28;20024;-74
2021/11/04 11:03:04;;;;;;;18.17;6.88;;;717.50;2278.40;;;;;;5066146;28;20753;-74
2021/11/04 11:05:32;;;;;;;11.68;6.00;;;742.40;2278.40;;;;;;5053455;28;20484;-74
2021/11/04 11:07:58;;;;;;;20.60;6.43;;;717.60;2227.20;;;;;;5071194;28;20477;-74
2021/11/04 11:10:24;;;;;;;12.93;7.45;;;742.50;2227.20;;;;;;5078440;28;20099;-74
2021/11/04 11:12:50;;;;;;;14.30;7.70;;;742.70;2201.60;;;;;;5091309;28;20059;-74
2021/11/04 11:15:17;;;;;;;12.27;6.38;;;768.00;2124.80;;;;;;5077039;28;20067;-74
2021/11/04 11:17:45;;;;;;;12.63;6.28;;;743.20;2124.80;;;;;;5079963;28;20035;-74
2021/11/04 11:20:13;;;;;;;12.05;6.25;;;742.70;2150.40;;;;;;5080003;28;20027;-74
2021/11/04 11:22:43;;;;;;;11.00;6.80;;;768.00;2099.20;;;;;;5115700;28;20012;-74
2021/11/04 11:25:09;;;;;;;14.68;5.88;;;743.20;2073.60;;;;;;5109278;28;20059;-73
2021/11/04 11:27:36;;;;;;;11.30;5.18;;;768.00;2022.40;;;;;;5084194;28;20020;-75
2021/11/04 11:30:14;;;;;;;13.98;6.28;;;768.20;1996.80;;;;;;5114351;28;20026;-74
2021/11/04 11:32:41;;;;;;;10.07;4.60;;;743.10;2048.00;;;;;;5114239;28;20096;-74
2021/11/04 11:35:09;;;;;;;15.20;6.15;;;743.30;2022.40;;;;;;5088129;28;20050;-74
2021/11/04 11:37:36;;;;;;;14.90;5.30;;;742.60;2099.20;;;;;;5096353;28;20027;-74
2021/11/04 11:40:10;;;;;;;10.73;5.50;;;717.10;2150.40;;;;;;5096806;28;20469;-74
2021/11/04 11:42:36;;;;;;;12.75;5.40;;;691.80;2227.20;;;;;;5107911;28;20020;-74
2021/11/04 11:45:13;;;;;;;9.65;5.07;;;691.40;2278.40;;;;;;5106390;28;20035;-74
2021/11/04 11:47:42;;;;;;;11.07;5.07;;;666.40;2329.60;;;;;;5113578;28;20547;-73
2021/11/04 11:50:31;;;;;;;13.15;5.70;;;666.10;2380.80;;;;;;5093195;28;20027;-74
2021/11/04 11:53:03;;;;;;;15.60;6.57;;;665.80;2432.00;;;;;;5094102;28;20043;-74
2021/11/04 11:55:59;;;;;;;15.05;6.60;;;665.70;2432.00;;;;;;5076444;28;20024;-74
2021/11/04 11:58:34;;;;;;;16.52;7.55;;;640.80;2432.00;;;;;;5012526;28;20044;-74
2021/11/04 12:01:06;;;;;;;10.40;7.07;;;640.60;2432.00;;;;;;4995761;28;20654;-74
2021/11/04 12:03:36;;;;;;;15.98;6.78;;;640.60;2432.00;;;;;;5012333;28;20041;-74
2021/11/04 12:06:17;;;;;;;12.60;6.03;;;640.50;2432.00;;;;;;5000987;28;20037;-74
2021/11/04 12:08:47;;;;;;;16.42;6.68;;;640.50;2432.00;;;;;;5007249;28;20061;-74
2021/11/04 12:11:37;;;;;;;15.38;7.10;;;640.50;2432.00;;;;;;5012138;28;20030;-74
2021/11/04 12:14:18;;;;;;;16.48;7.25;;;640.30;2432.00;;;;;;5011642;28;20498;-74
2021/11/04 12:17:05;;;;;;;16.35;6.95;;;640.20;2432.00;;;;;;5011433;28;20057;-74
2021/11/04 12:19:49;;;;;;;16.13;6.38;;;640.00;2432.00;;;;;;5011932;28;20096;-74
2021/11/04 12:22:28;;;;;;;10.90;5.53;;;640.00;2432.00;;;;;;5008199;28;20706;-74
2021/11/04 12:25:06;;;;;;;17.23;6.47;;;640.00;2432.00;;;;;;5002134;28;20401;-74
2021/11/04 12:27:37;;;;;;;11.77;4.88;;;640.00;2432.00;;;;;;4990286;28;20038;-74
2021/11/04 12:30:26;;;;;;;14.20;5.10;;;640.00;2432.00;;;;;;5010741;28;20563;-74
2021/11/04 12:33:09;;;;;;;12.82;4.53;;;640.00;2432.00;;;;;;4987951;28;20041;-74
2021/11/04 12:35:43;;;;;;;11.15;4.55;;;640.00;2432.00;;;;;;5066928;28;20060;-74
2021/11/04 12:38:09;;;;;;;10.90;5.97;;;640.00;2432.00;;;;;;5064325;28;20093;-73
2021/11/04 12:40:35;;;;;;;18.95;6.40;;;640.00;2432.00;;;;;;5082054;28;20028;-74
2021/11/04 12:43:12;;;;;;;11.23;6.53;;;640.00;2432.00;;;;;;5082121;28;20518;-74
2021/11/04 12:45:45;;;;;;;17.05;7.85;;;640.00;2432.00;;;;;;5085878;28;20032;-74